Time;durP1;ratioP1;P1;durP2;ratioP2;P2;SDS_P1;SDS_P2;PMS_P1;PMS_P2;Temp;Humidity;BMP_temperature;BMP_pressure;BME280_temperature;BME280_humidity;BME280_pressure;Samples;Min_cycle;Max_cycle;Signal;HPM_P1;HPM_P2
2023/06/24 00:02:15;;;;;;;10.52;7.05;;;15.10;99.90;;;;;;5058852;28;20079;-76
2023/06/24 00:04:41;;;;;;;10.73;8.07;;;15.10;99.90;;;;;;5076124;28;20147;-76
2023/06/24 00:07:07;;;;;;;13.15;8.57;;;15.10;99.90;;;;;;5058574;28;20080;-76
2023/06/24 00:09:32;;;;;;;11.07;7.57;;;15.10;99.90;;;;;;5058398;28;20052;-75
2023/06/24 00:11:58;;;;;;;12.48;8.45;;;15.10;99.90;;;;;;5058262;28;20377;-76
2023/06/24 00:14:26;;;;;;;13.25;8.68;;;15.00;99.90;;;;;;5058562;28;20131;-76
2023/06/24 00:16:52;;;;;;;13.32;8.73;;;15.00;99.90;;;;;;5076139;28;20081;-76
2023/06/24 00:19:24;;;;;;;14.48;8.93;;;15.00;99.90;;;;;;5058478;28;20102;-75
2023/06/24 00:21:53;;;;;;;15.75;9.85;;;15.10;99.90;;;;;;5076236;28;20075;-75
2023/06/24 00:24:25;;;;;;;15.02;9.82;;;15.00;99.90;;;;;;5076122;28;20101;-75
2023/06/24 00:26:54;;;;;;;15.93;9.85;;;15.10;99.90;;;;;;5076026;28;20482;-76
2023/06/24 00:29:20;;;;;;;16.48;11.13;;;15.00;99.90;;;;;;5076021;28;20045;-75
2023/06/24 00:31:46;;;;;;;15.50;10.52;;;15.10;99.90;;;;;;5058214;28;20120;-75
2023/06/24 00:34:14;;;;;;;20.90;13.25;;;15.10;99.90;;;;;;5057811;28;20083;-75
2023/06/24 00:36:43;;;;;;;18.77;12.07;;;15.10;99.90;;;;;;5057730;28;20044;-76
2023/06/24 00:39:09;;;;;;;17.73;12.55;;;15.10;99.90;;;;;;5058145;28;20067;-76
2023/06/24 00:41:35;;;;;;;19.27;12.95;;;15.10;99.90;;;;;;5058119;28;20049;-76
2023/06/24 00:44:01;;;;;;;21.02;12.82;;;15.10;99.90;;;;;;5058057;28;20071;-76
2023/06/24 00:46:28;;;;;;;19.58;13.40;;;15.10;99.90;;;;;;5075605;28;20369;-76
2023/06/24 00:48:57;;;;;;;20.23;12.68;;;15.10;99.90;;;;;;5075648;28;20044;-77
2023/06/24 00:51:30;;;;;;;17.80;12.00;;;15.10;99.90;;;;;;5057766;28;20084;-78
2023/06/24 00:53:59;;;;;;;18.20;12.60;;;15.10;99.90;;;;;;5057586;28;20134;-76
2023/06/24 00:56:30;;;;;;;18.75;12.52;;;15.10;99.90;;;;;;5057312;28;20127;-75
2023/06/24 00:58:58;;;;;;;20.67;13.77;;;15.10;99.90;;;;;;5057765;28;20391;-76
2023/06/24 01:01:24;;;;;;;25.33;15.55;;;15.20;99.90;;;;;;5057334;28;20116;-75
2023/06/24 01:03:50;;;;;;;24.80;15.77;;;15.30;99.90;;;;;;5057368;28;20080;-75
2023/06/24 01:06:17;;;;;;;22.90;15.40;;;15.30;99.90;;;;;;5057549;28;20084;-75
2023/06/24 01:08:43;;;;;;;25.70;16.15;;;15.30;99.90;;;;;;5075188;28;20480;-75
2023/06/24 01:11:09;;;;;;;27.77;17.52;;;15.40;99.90;;;;;;5057234;28;20093;-77
2023/06/24 01:13:34;;;;;;;24.25;15.30;;;15.40;99.90;;;;;;5057209;28;20055;-77
2023/06/24 01:16:07;;;;;;;24.88;16.52;;;15.40;99.90;;;;;;5057229;28;20084;-77
2023/06/24 01:18:47;;;;;;;26.48;16.38;;;15.40;99.90;;;;;;5057002;28;20063;-77
2023/06/24 01:21:31;;;;;;;27.10;16.55;;;15.40;99.90;;;;;;5074605;28;20502;-77
2023/06/24 01:24:28;;;;;;;25.77;17.02;;;15.40;99.90;;;;;;5074979;28;20098;-76
2023/06/24 01:27:22;;;;;;;23.80;16.23;;;15.40;99.90;;;;;;5056843;28;20048;-78
2023/06/24 01:29:51;;;;;;;24.42;17.13;;;15.30;99.90;;;;;;5056988;28;20047;-77
2023/06/24 01:32:36;;;;;;;24.58;17.42;;;15.40;99.90;;;;;;5056805;28;20099;-77
2023/06/24 01:35:10;;;;;;;25.85;16.60;;;15.30;99.90;;;;;;5056715;28;20060;-77
2023/06/24 01:37:42;;;;;;;26.13;16.27;;;15.30;99.90;;;;;;5056582;28;20545;-78
2023/06/24 01:40:27;;;;;;;23.27;16.70;;;15.30;99.90;;;;;;5056805;28;20402;-77
2023/06/24 01:42:57;;;;;;;26.05;16.90;;;15.30;99.90;;;;;;5056701;28;20044;-78
2023/06/24 01:45:28;;;;;;;25.38;17.45;;;15.30;99.90;;;;;;5056444;28;20048;-77
2023/06/24 01:48:04;;;;;;;23.48;15.88;;;15.30;99.90;;;;;;5056807;28;20119;-77
2023/06/24 01:50:32;;;;;;;25.20;17.20;;;15.30;99.90;;;;;;5056708;28;20048;-77
2023/06/24 01:53:01;;;;;;;24.45;16.27;;;15.20;99.90;;;;;;5056474;28;20434;-77
2023/06/24 01:55:29;;;;;;;27.67;16.58;;;15.20;99.90;;;;;;5056590;28;20094;-77
2023/06/24 01:57:56;;;;;;;24.85;16.08;;;15.30;99.90;;;;;;5074142;28;20041;-77
2023/06/24 02:00:23;;;;;;;26.08;16.58;;;15.30;99.90;;;;;;5056286;28;20127;-77
2023/06/24 02:02:53;;;;;;;23.00;16.10;;;15.20;99.90;;;;;;5074116;28;20395;-78
2023/06/24 02:05:21;;;;;;;25.85;15.55;;;15.30;99.90;;;;;;5056173;28;20090;-77
2023/06/24 02:07:49;;;;;;;23.58;14.82;;;15.20;99.90;;;;;;5057287;28;20040;-76
2023/06/24 02:10:15;;;;;;;25.52;15.93;;;15.30;99.90;;;;;;5074069;28;20036;-76
2023/06/24 02:12:43;;;;;;;27.55;15.48;;;15.20;99.90;;;;;;5074048;28;20036;-76
2023/06/24 02:15:10;;;;;;;21.95;15.48;;;15.20;99.90;;;;;;5055971;28;20059;-76
2023/06/24 02:17:38;;;;;;;22.95;14.55;;;15.30;99.90;;;;;;5055984;28;20048;-76
2023/06/24 02:20:08;;;;;;;23.73;15.43;;;15.20;99.90;;;;;;5056051;28;20052;-77
2023/06/24 02:22:35;;;;;;;23.50;14.50;;;15.20;99.90;;;;;;5056019;28;20539;-77
2023/06/24 02:25:02;;;;;;;22.45;14.95;;;15.20;99.90;;;;;;5056099;28;20387;-76
2023/06/24 02:27:29;;;;;;;22.05;15.05;;;15.30;99.90;;;;;;5056143;28;20443;-77
2023/06/24 02:29:55;;;;;;;23.48;15.20;;;15.30;99.90;;;;;;5055854;28;20055;-76
2023/06/24 02:32:21;;;;;;;24.17;15.75;;;15.30;99.90;;;;;;5073831;28;20036;-77
2023/06/24 02:34:46;;;;;;;24.23;15.23;;;15.40;99.90;;;;;;5051328;28;20408;-77
2023/06/24 02:37:12;;;;;;;23.40;15.55;;;15.40;99.90;;;;;;5052249;28;20053;-76
2023/06/24 02:39:43;;;;;;;27.52;14.82;;;15.40;99.90;;;;;;5052352;28;20056;-76
2023/06/24 02:42:12;;;;;;;22.65;15.82;;;15.40;99.90;;;;;;5053908;28;20064;-76
2023/06/24 02:44:39;;;;;;;24.23;13.93;;;15.40;99.90;;;;;;5052662;28;20033;-76
2023/06/24 02:47:09;;;;;;;22.00;15.13;;;15.50;99.90;;;;;;5052577;28;20045;-76
2023/06/24 02:49:36;;;;;;;21.73;14.05;;;15.50;99.90;;;;;;5053395;28;20088;-76
2023/06/24 02:52:02;;;;;;;24.23;15.38;;;15.50;99.90;;;;;;5052211;28;20045;-77
2023/06/24 02:54:29;;;;;;;22.27;15.45;;;15.50;99.90;;;;;;5052515;28;20044;-77
2023/06/24 02:56:57;;;;;;;22.67;15.23;;;15.50;99.90;;;;;;5051797;28;20041;-76
2023/06/24 02:59:24;;;;;;;25.08;14.52;;;15.50;99.90;;;;;;5052032;28;20049;-77
2023/06/24 03:01:51;;;;;;;21.55;14.65;;;15.50;99.90;;;;;;5053291;28;20064;-76
2023/06/24 03:04:18;;;;;;;21.15;14.32;;;15.50;99.90;;;;;;5051894;28;20080;-76
2023/06/24 03:06:44;;;;;;;26.67;15.45;;;15.40;99.90;;;;;;5051692;28;20148;-76
2023/06/24 03:09:10;;;;;;;22.67;13.18;;;15.40;99.90;;;;;;5050754;28;20102;-77
2023/06/24 03:11:43;;;;;;;24.05;13.80;;;15.40;99.90;;;;;;5051818;28;20045;-76
2023/06/24 03:14:12;;;;;;;;;;;15.40;99.90;;;;;;5052308;28;20044;-76
2023/06/24 03:16:38;;;;;;;20.88;13.30;;;15.40;99.90;;;;;;5051808;28;19927;-76
2023/06/24 03:19:04;;;;;;;24.27;14.98;;;15.30;99.90;;;;;;5053288;28;20041;-77
2023/06/24 03:21:31;;;;;;;22.50;14.05;;;15.30;99.90;;;;;;5051766;28;20418;-77
2023/06/24 03:23:58;;;;;;;22.42;14.15;;;15.30;99.90;;;;;;5051876;28;20041;-77
2023/06/24 03:26:34;;;;;;;23.33;14.23;;;15.30;99.90;;;;;;5051701;28;20049;-76
2023/06/24 03:29:00;;;;;;;23.58;14.13;;;15.30;99.90;;;;;;5052933;28;20504;-77
2023/06/24 03:31:26;;;;;;;20.48;13.40;;;15.20;99.90;;;;;;5051925;28;20051;-76
2023/06/24 03:33:53;;;;;;;20.88;14.18;;;15.20;99.90;;;;;;5053010;28;20463;-77
2023/06/24 03:36:19;;;;;;;22.13;14.32;;;15.20;99.90;;;;;;5073195;28;20036;-79
2023/06/24 03:38:45;;;;;;;22.55;14.40;;;15.10;99.90;;;;;;5073072;28;20059;-77
2023/06/24 03:41:11;;;;;;;22.77;14.65;;;15.10;99.90;;;;;;5072856;28;20044;-76
2023/06/24 03:43:37;;;;;;;23.17;14.68;;;15.20;99.90;;;;;;5055474;28;20133;-78
2023/06/24 03:46:02;;;;;;;22.13;14.82;;;15.10;99.90;;;;;;5057594;28;20049;-78
2023/06/24 03:48:28;;;;;;;21.65;14.23;;;15.10;99.90;;;;;;5058890;28;20040;-78
2023/06/24 03:50:54;;;;;;;22.27;14.88;;;15.20;99.90;;;;;;5058579;28;20376;-78
2023/06/24 03:53:19;;;;;;;20.95;14.15;;;15.20;99.90;;;;;;5058820;28;20126;-78
2023/06/24 03:55:45;;;;;;;23.92;15.23;;;15.20;99.90;;;;;;5076392;28;20083;-78
2023/06/24 03:58:10;;;;;;;25.70;14.80;;;15.30;99.90;;;;;;5058720;28;20048;-78
2023/06/24 04:00:40;;;;;;;21.75;13.82;;;15.30;99.90;;;;;;5076576;28;20094;-77
2023/06/24 04:03:09;;;;;;;21.90;14.70;;;15.30;99.90;;;;;;5076526;28;20071;-76
2023/06/24 04:05:35;;;;;;;24.27;15.23;;;15.40;99.90;;;;;;5058193;28;20431;-75
2023/06/24 04:08:00;;;;;;;23.20;14.75;;;15.40;99.90;;;;;;5058208;28;20499;-75
2023/06/24 04:10:26;;;;;;;22.75;15.18;;;15.40;99.90;;;;;;5058595;28;20040;-77
2023/06/24 04:12:52;;;;;;;24.38;14.90;;;15.50;99.90;;;;;;5058447;28;20123;-76
2023/06/24 04:15:18;;;;;;;21.23;14.57;;;15.50;99.90;;;;;;5058416;28;20062;-77
2023/06/24 04:17:43;;;;;;;24.00;15.15;;;15.60;99.90;;;;;;5058150;28;20044;-76
2023/06/24 04:20:09;;;;;;;26.58;15.75;;;15.60;99.90;;;;;;5058320;28;20113;-77
2023/06/24 04:22:37;;;;;;;21.38;14.23;;;15.70;99.90;;;;;;5058268;28;20049;-76
2023/06/24 04:25:03;;;;;;;22.48;15.38;;;15.80;99.90;;;;;;5075715;28;20491;-78
2023/06/24 04:27:28;;;;;;;24.48;14.55;;;15.90;99.90;;;;;;5058744;28;20131;-77
2023/06/24 04:29:54;;;;;;;22.13;14.70;;;15.90;99.90;;;;;;5057863;28;20364;-77
2023/06/24 04:32:19;;;;;;;22.02;13.75;;;16.00;99.90;;;;;;5058189;28;20062;-77
2023/06/24 04:34:46;;;;;;;22.38;14.38;;;16.10;99.90;;;;;;5057809;28;20408;-78
2023/06/24 04:37:12;;;;;;;21.88;15.43;;;16.20;99.90;;;;;;5057754;28;20053;-78
2023/06/24 04:39:38;;;;;;;23.85;15.18;;;16.20;99.90;;;;;;5075785;28;20044;-79
2023/06/24 04:42:04;;;;;;;22.42;14.45;;;16.30;99.90;;;;;;5075814;28;20055;-77
2023/06/24 04:44:29;;;;;;;21.67;14.43;;;16.40;99.90;;;;;;5057541;28;20045;-77
2023/06/24 04:46:55;;;;;;;21.48;13.80;;;16.50;99.90;;;;;;5057534;28;20051;-76
2023/06/24 04:49:21;;;;;;;23.63;14.98;;;16.60;99.90;;;;;;5057466;28;20494;-76
2023/06/24 04:51:47;;;;;;;22.38;14.30;;;16.70;99.90;;;;;;5075612;28;20075;-76
2023/06/24 04:54:12;;;;;;;22.00;13.73;;;16.80;99.90;;;;;;5057214;28;20091;-76
2023/06/24 04:56:39;;;;;;;21.75;14.30;;;16.90;99.90;;;;;;5074193;28;20051;-76
2023/06/24 04:59:05;;;;;;;20.90;14.80;;;17.00;99.90;;;;;;5075416;28;20045;-76
2023/06/24 05:01:31;;;;;;;20.45;13.85;;;17.10;99.90;;;;;;5057323;28;20041;-76
2023/06/24 05:03:56;;;;;;;18.80;13.60;;;17.30;99.90;;;;;;5057400;28;20138;-76
2023/06/24 05:06:22;;;;;;;21.75;13.20;;;17.40;99.90;;;;;;5057239;28;20047;-76
2023/06/24 05:08:47;;;;;;;22.58;14.43;;;17.40;99.90;;;;;;5074943;28;20124;-76
2023/06/24 05:11:13;;;;;;;20.77;13.82;;;17.50;99.90;;;;;;5075224;28;20041;-76
2023/06/24 05:13:40;;;;;;;19.92;12.90;;;17.70;99.90;;;;;;5075161;28;20491;-76
2023/06/24 05:16:05;;;;;;;20.17;13.70;;;17.70;99.90;;;;;;5056870;28;20049;-76
2023/06/24 05:18:31;;;;;;;20.20;12.70;;;17.60;99.90;;;;;;5056830;28;20066;-76
2023/06/24 05:20:56;;;;;;;20.17;12.25;;;17.70;99.90;;;;;;5056892;28;20079;-76
2023/06/24 05:23:22;;;;;;;20.17;13.48;;;17.70;99.90;;;;;;5074869;28;20063;-75
2023/06/24 05:25:48;;;;;;;20.85;13.65;;;17.70;99.90;;;;;;5056993;28;20083;-75
2023/06/24 05:28:13;;;;;;;21.13;14.23;;;17.60;99.90;;;;;;5074711;28;20483;-75
2023/06/24 05:30:40;;;;;;;18.65;13.10;;;17.70;99.90;;;;;;5057102;28;20044;-75
2023/06/24 05:33:06;;;;;;;19.38;13.95;;;17.60;99.90;;;;;;5074755;28;20052;-75
2023/06/24 05:35:32;;;;;;;20.30;13.57;;;17.70;99.90;;;;;;5056335;28;20056;-75
2023/06/24 05:37:58;;;;;;;18.85;13.38;;;17.80;99.90;;;;;;5056427;28;20067;-75
2023/06/24 05:40:23;;;;;;;20.35;13.68;;;17.80;99.90;;;;;;5056761;28;20040;-75
2023/06/24 05:42:49;;;;;;;21.90;14.80;;;17.80;99.90;;;;;;5056369;28;20487;-74
2023/06/24 05:45:15;;;;;;;21.27;14.50;;;17.90;99.90;;;;;;5074263;28;20048;-75
2023/06/24 05:47:41;;;;;;;23.80;13.80;;;17.90;99.90;;;;;;5056363;28;20059;-75
2023/06/24 05:50:07;;;;;;;23.02;13.70;;;18.00;99.90;;;;;;5056323;28;20409;-75
2023/06/24 05:52:33;;;;;;;21.80;14.35;;;18.00;99.90;;;;;;5056188;28;20047;-75
2023/06/24 05:54:58;;;;;;;19.90;13.15;;;18.00;99.90;;;;;;5056428;28;20052;-73
2023/06/24 05:57:24;;;;;;;21.95;14.32;;;18.00;99.90;;;;;;5056113;28;20118;-74
2023/06/24 05:59:50;;;;;;;24.48;15.07;;;18.00;99.90;;;;;;5056139;28;20132;-75
2023/06/24 06:02:15;;;;;;;23.40;14.77;;;18.00;99.90;;;;;;5056090;28;20135;-74
2023/06/24 06:04:41;;;;;;;23.10;14.45;;;18.10;99.90;;;;;;5050741;28;20094;-73
2023/06/24 06:07:07;;;;;;;23.08;14.68;;;18.10;99.90;;;;;;5062670;28;20044;-73
2023/06/24 06:09:32;;;;;;;23.10;14.68;;;18.10;99.90;;;;;;5035709;28;20450;-73
2023/06/24 06:11:58;;;;;;;22.65;14.38;;;18.20;99.90;;;;;;5035813;28;20041;-73
2023/06/24 06:14:23;;;;;;;19.75;13.82;;;18.20;99.90;;;;;;5036023;28;20110;-74
2023/06/24 06:16:49;;;;;;;22.08;14.98;;;18.30;99.90;;;;;;5035535;28;20045;-74
2023/06/24 06:19:15;;;;;;;19.67;13.35;;;18.30;99.90;;;;;;5053526;28;20045;-74
2023/06/24 06:21:40;;;;;;;22.27;14.00;;;18.40;99.90;;;;;;5035756;28;20123;-74
2023/06/24 06:24:06;;;;;;;20.15;14.38;;;18.40;99.90;;;;;;5053713;28;20175;-74
2023/06/24 06:26:32;;;;;;;22.10;14.98;;;18.50;99.90;;;;;;5052170;28;20041;-73
2023/06/24 06:28:57;;;;;;;18.05;13.30;;;18.60;99.90;;;;;;5053330;28;20041;-84
2023/06/24 06:31:25;;;;;;;19.65;13.90;;;18.70;99.90;;;;;;5053285;28;20045;-73
2023/06/24 06:33:53;;;;;;;20.67;14.15;;;18.80;99.90;;;;;;5035542;28;20056;-75
2023/06/24 06:36:18;;;;;;;22.65;14.20;;;18.90;99.90;;;;;;5053239;28;20053;-75
2023/06/24 06:38:44;;;;;;;19.75;14.02;;;19.00;99.90;;;;;;5035324;28;20052;-73
2023/06/24 06:41:10;;;;;;;25.63;14.68;;;19.10;99.90;;;;;;5053329;28;20039;-73
2023/06/24 06:43:35;;;;;;;19.10;12.88;;;19.30;99.90;;;;;;5053208;28;20052;-74
2023/06/24 06:46:01;;;;;;;22.52;13.45;;;19.40;99.90;;;;;;5035292;28;20133;-73
2023/06/24 06:48:27;;;;;;;21.80;13.82;;;19.50;99.90;;;;;;5035574;28;20056;-77
2023/06/24 06:50:53;;;;;;;18.67;12.70;;;19.60;99.90;;;;;;5035241;28;20470;-74
2023/06/24 06:53:18;;;;;;;19.17;13.13;;;19.70;99.90;;;;;;5035239;28;20049;-74
2023/06/24 06:55:44;;;;;;;21.83;13.52;;;19.80;99.90;;;;;;5035519;28;20041;-74
2023/06/24 06:58:10;;;;;;;19.92;13.45;;;19.90;99.90;;;;;;5034959;28;20103;-74
2023/06/24 07:00:35;;;;;;;19.63;12.73;;;20.00;99.90;;;;;;5053289;28;20539;-79
2023/06/24 07:03:02;;;;;;;18.85;13.60;;;20.10;99.90;;;;;;5035107;28;20052;-74
2023/06/24 07:05:27;;;;;;;20.48;13.57;;;20.20;99.90;;;;;;5035021;28;20048;-76
2023/06/24 07:07:53;;;;;;;19.85;12.77;;;20.30;99.90;;;;;;5035097;28;20049;-75
2023/06/24 07:10:19;;;;;;;18.83;13.15;;;20.30;99.90;;;;;;5035155;28;20072;-74
2023/06/24 07:12:45;;;;;;;20.17;12.95;;;20.50;99.90;;;;;;5052948;28;20040;-74
2023/06/24 07:15:11;;;;;;;17.75;12.45;;;20.60;99.90;;;;;;5035005;28;20053;-75
2023/06/24 07:17:37;;;;;;;16.25;11.30;;;20.70;99.90;;;;;;5034909;28;20048;-74
2023/06/24 07:20:03;;;;;;;16.00;11.52;;;20.90;99.90;;;;;;5054046;28;20041;-76
2023/06/24 07:22:30;;;;;;;19.23;12.80;;;21.00;99.90;;;;;;5039230;28;20040;-78
2023/06/24 07:24:56;;;;;;;17.80;12.00;;;21.10;99.90;;;;;;5056914;28;20051;-74
2023/06/24 07:27:22;;;;;;;21.65;13.52;;;21.20;99.90;;;;;;5038840;28;20404;-75
2023/06/24 07:29:48;;;;;;;16.67;13.07;;;21.20;99.90;;;;;;5038776;28;20522;-74
2023/06/24 07:32:13;;;;;;;16.70;11.98;;;21.30;99.90;;;;;;5038805;28;20500;-76
2023/06/24 07:34:40;;;;;;;18.88;13.05;;;21.50;99.90;;;;;;5038419;28;20059;-77
2023/06/24 07:37:06;;;;;;;17.67;12.85;;;21.60;99.90;;;;;;5038511;28;20060;-75
2023/06/24 07:39:31;;;;;;;19.10;12.90;;;21.80;99.90;;;;;;5038573;28;20053;-75
2023/06/24 07:41:57;;;;;;;23.38;13.43;;;21.80;99.90;;;;;;5038610;28;20069;-75
2023/06/24 07:44:22;;;;;;;18.33;12.82;;;22.10;99.90;;;;;;5038649;28;20044;-75
2023/06/24 07:46:50;;;;;;;17.92;13.60;;;22.20;99.90;;;;;;5056681;28;20406;-75
2023/06/24 07:49:17;;;;;;;18.25;13.35;;;22.20;99.90;;;;;;5056154;28;20409;-75
2023/06/24 07:51:44;;;;;;;20.13;13.30;;;22.20;99.90;;;;;;5038735;28;20053;-75
2023/06/24 07:54:10;;;;;;;16.85;12.27;;;22.30;99.90;;;;;;5056122;28;20467;-75
2023/06/24 07:56:36;;;;;;;18.55;13.45;;;22.50;99.90;;;;;;5038278;28;20481;-75
2023/06/24 07:59:02;;;;;;;19.05;13.60;;;22.60;99.90;;;;;;5038142;28;20056;-76
2023/06/24 08:01:27;;;;;;;22.63;13.55;;;22.80;99.90;;;;;;5038481;28;20052;-76
2023/06/24 08:03:53;;;;;;;17.98;12.68;;;23.10;99.90;;;;;;5038083;28;20041;-75
2023/06/24 08:06:19;;;;;;;20.40;12.70;;;23.40;99.90;;;;;;5038201;28;20052;-75
2023/06/24 08:08:46;;;;;;;16.27;12.45;;;23.50;99.90;;;;;;5038110;28;20515;-75
2023/06/24 08:11:12;;;;;;;18.65;12.82;;;23.70;99.90;;;;;;5038358;28;20171;-76
2023/06/24 08:13:38;;;;;;;16.50;12.02;;;23.80;99.90;;;;;;5038210;28;20057;-76
2023/06/24 08:16:04;;;;;;;16.60;11.35;;;24.10;99.90;;;;;;5038171;28;20391;-76
2023/06/24 08:18:29;;;;;;;15.85;11.85;;;24.20;99.90;;;;;;5037829;28;20488;-76
2023/06/24 08:20:55;;;;;;;16.17;11.48;;;24.40;99.90;;;;;;5037845;28;20045;-76
2023/06/24 08:23:21;;;;;;;15.77;12.40;;;24.60;99.90;;;;;;5037779;28;20041;-76
2023/06/24 08:25:46;;;;;;;15.98;11.15;;;24.80;99.90;;;;;;5038036;28;20037;-76
2023/06/24 08:28:12;;;;;;;15.40;11.00;;;25.10;99.90;;;;;;5055879;28;20421;-76
2023/06/24 08:30:37;;;;;;;14.80;9.55;;;25.20;99.90;;;;;;5037473;28;20128;-76
2023/06/24 08:33:03;;;;;;;14.73;10.65;;;25.40;99.90;;;;;;5036506;28;20045;-76
2023/06/24 08:35:30;;;;;;;15.73;11.27;;;25.50;99.90;;;;;;5037412;28;20057;-76
2023/06/24 08:37:56;;;;;;;16.67;11.52;;;25.30;99.90;;;;;;5055458;28;20056;-76
2023/06/24 08:40:22;;;;;;;14.90;10.93;;;25.20;99.90;;;;;;5037760;28;20053;-76
2023/06/24 08:42:47;;;;;;;16.02;10.57;;;25.20;99.90;;;;;;5055629;28;20081;-76
2023/06/24 08:45:13;;;;;;;14.30;8.38;;;25.50;99.90;;;;;;5037648;28;20053;-76
2023/06/24 08:47:40;;;;;;;11.35;8.15;;;25.60;99.90;;;;;;5037402;28;20045;-76
2023/06/24 08:50:15;;;;;;;12.35;9.60;;;25.70;99.90;;;;;;5037351;28;20053;-76
2023/06/24 08:52:48;;;;;;;13.85;8.95;;;25.60;99.90;;;;;;5055269;28;20037;-76
2023/06/24 08:55:16;;;;;;;13.02;9.15;;;25.80;99.90;;;;;;5037611;28;20049;-76
2023/06/24 08:57:42;;;;;;;11.90;9.35;;;25.90;99.90;;;;;;5054938;28;20121;-76
2023/06/24 09:00:11;;;;;;;14.75;10.43;;;25.90;99.90;;;;;;5037093;28;20131;-76
2023/06/24 09:02:38;;;;;;;14.48;9.07;;;26.10;99.90;;;;;;5055197;28;20115;-76
2023/06/24 09:05:07;;;;;;;13.90;10.93;;;26.30;99.90;;;;;;5054869;28;20041;-76
2023/06/24 09:07:33;;;;;;;16.13;11.07;;;26.20;99.90;;;;;;5037189;28;20091;-76
2023/06/24 09:10:03;;;;;;;13.88;8.45;;;26.30;99.90;;;;;;5036987;28;20098;-76
2023/06/24 09:12:32;;;;;;;13.57;9.35;;;26.40;99.90;;;;;;5037069;28;20140;-75
2023/06/24 09:14:58;;;;;;;12.80;9.80;;;26.60;99.90;;;;;;5036780;28;20465;-74
2023/06/24 09:17:24;;;;;;;13.13;9.02;;;26.70;99.90;;;;;;5054793;28;20507;-74
2023/06/24 09:19:50;;;;;;;12.00;8.55;;;26.80;99.90;;;;;;5036761;28;20041;-76
2023/06/24 09:22:17;;;;;;;11.70;8.55;;;26.90;99.90;;;;;;5054540;28;20037;-75
2023/06/24 09:24:47;;;;;;;13.98;9.57;;;27.10;99.90;;;;;;5036680;28;20485;-76
2023/06/24 09:27:15;;;;;;;13.20;9.25;;;27.20;99.90;;;;;;5036517;28;20041;-74
2023/06/24 09:29:42;;;;;;;14.82;8.80;;;26.90;99.90;;;;;;5036539;28;20060;-75
2023/06/24 09:32:08;;;;;;;12.63;8.90;;;27.10;99.90;;;;;;5036818;28;20041;-78
2023/06/24 09:34:35;;;;;;;14.35;9.52;;;27.30;99.90;;;;;;5036173;28;20057;-75
2023/06/24 09:37:01;;;;;;;12.18;8.93;;;27.40;99.90;;;;;;5036201;28;20041;-74
2023/06/24 09:39:29;;;;;;;12.13;7.97;;;27.50;99.90;;;;;;5054480;28;20037;-75
2023/06/24 09:42:05;;;;;;;10.88;8.07;;;27.40;99.90;;;;;;5036499;28;20150;-75
2023/06/24 09:44:30;;;;;;;12.35;8.68;;;27.50;99.90;;;;;;5053807;28;20052;-75
2023/06/24 09:46:57;;;;;;;13.73;8.70;;;27.40;99.90;;;;;;5036229;28;20045;-75
2023/06/24 09:49:23;;;;;;;12.68;7.88;;;27.50;99.90;;;;;;5036133;28;20049;-75
2023/06/24 09:51:52;;;;;;;11.50;8.73;;;27.70;99.90;;;;;;5036239;28;20037;-75
2023/06/24 09:54:18;;;;;;;10.45;8.80;;;27.90;99.90;;;;;;5036022;28;20052;-74
2023/06/24 09:56:48;;;;;;;12.02;8.63;;;27.80;99.90;;;;;;5054184;28;20044;-75
2023/06/24 09:59:17;;;;;;;13.75;8.38;;;27.80;99.90;;;;;;5036184;28;20045;-76
2023/06/24 10:01:44;;;;;;;14.43;8.43;;;27.80;99.90;;;;;;5036221;28;20053;-74
2023/06/24 10:04:16;;;;;;;13.65;8.88;;;28.00;99.90;;;;;;5053832;28;20044;-76
2023/06/24 10:06:41;;;;;;;13.70;8.50;;;27.90;99.90;;;;;;5053747;28;20041;-75
2023/06/24 10:09:08;;;;;;;10.73;7.90;;;27.90;99.90;;;;;;5053957;28;20385;-75
2023/06/24 10:11:34;;;;;;;14.65;8.48;;;28.00;99.90;;;;;;5035814;28;20092;-75
2023/06/24 10:14:00;;;;;;;12.23;7.65;;;28.10;99.90;;;;;;5035852;28;20060;-72
2023/06/24 10:16:26;;;;;;;12.90;8.20;;;28.30;99.90;;;;;;5035795;28;20045;-73
2023/06/24 10:18:51;;;;;;;11.75;7.90;;;28.30;99.90;;;;;;5035648;28;20187;-74
2023/06/24 10:21:17;;;;;;;10.85;7.93;;;28.00;99.90;;;;;;5053458;28;20041;-75
2023/06/24 10:23:52;;;;;;;13.35;7.97;;;27.70;99.90;;;;;;5035624;28;20404;-75
2023/06/24 10:26:29;;;;;;;11.27;8.15;;;28.00;99.90;;;;;;5035661;28;20496;-76
2023/06/24 10:29:07;;;;;;;12.63;7.38;;;27.80;99.90;;;;;;5035516;28;20048;-76
2023/06/24 10:31:53;;;;;;;10.18;6.90;;;27.60;99.90;;;;;;5053356;28;20092;-77
2023/06/24 10:34:22;;;;;;;10.88;7.40;;;27.80;99.90;;;;;;5052807;28;20084;-78
2023/06/24 10:37:17;;;;;;;15.68;7.47;;;28.00;99.90;;;;;;5035488;28;20390;-75
2023/06/24 10:39:57;;;;;;;12.73;6.82;;;28.00;99.90;;;;;;5053486;28;20136;-74
2023/06/24 10:42:45;;;;;;;10.50;7.72;;;28.10;99.90;;;;;;5053576;28;20055;-73
2023/06/24 10:45:17;;;;;;;11.05;7.07;;;28.30;99.90;;;;;;5053329;28;20036;-76
2023/06/24 10:47:46;;;;;;;12.23;8.23;;;28.30;99.90;;;;;;5035272;28;20563;-72
2023/06/24 10:50:18;;;;;;;11.82;7.82;;;28.20;99.90;;;;;;5053047;28;20127;-75
2023/06/24 10:52:48;;;;;;;13.05;7.88;;;28.10;99.90;;;;;;5035382;28;20492;-75
2023/06/24 10:55:18;;;;;;;12.30;7.43;;;27.80;99.90;;;;;;5052174;28;20477;-76
2023/06/24 10:57:44;;;;;;;12.77;7.07;;;27.50;99.90;;;;;;5035012;28;20106;-76
2023/06/24 11:00:11;;;;;;;12.48;7.47;;;27.50;99.90;;;;;;5052970;28;20489;-77
2023/06/24 11:02:37;;;;;;;9.77;7.28;;;27.50;99.90;;;;;;5035380;28;20059;-79
2023/06/24 11:05:04;;;;;;;12.10;7.90;;;27.40;99.90;;;;;;5053125;28;20124;-78
2023/06/24 11:07:35;;;;;;;12.02;8.30;;;27.60;99.90;;;;;;5035046;28;20124;-79
2023/06/24 11:10:14;;;;;;;12.27;8.55;;;27.70;99.90;;;;;;5053047;28;20085;-75
2023/06/24 11:12:41;;;;;;;17.45;8.32;;;27.70;99.90;;;;;;5034942;28;20037;-73
2023/06/24 11:15:09;;;;;;;16.00;8.57;;;27.60;99.90;;;;;;5035033;28;20090;-79
2023/06/24 11:17:36;;;;;;;11.98;6.80;;;27.50;99.90;;;;;;5035014;28;20056;-80
2023/06/24 11:20:06;;;;;;;12.05;8.15;;;27.70;99.90;;;;;;5035186;28;20063;-79
2023/06/24 11:22:32;;;;;;;12.20;8.32;;;27.60;99.90;;;;;;5034947;28;20468;-78
2023/06/24 11:24:57;;;;;;;15.02;8.55;;;27.60;99.90;;;;;;5034955;28;20496;-78
2023/06/24 11:27:31;;;;;;;15.95;8.48;;;27.60;99.90;;;;;;5034853;28;20041;-75
2023/06/24 11:30:01;;;;;;;20.10;8.23;;;27.10;99.90;;;;;;5052918;28;20037;-75
2023/06/24 11:32:38;;;;;;;18.23;8.30;;;26.60;99.90;;;;;;5034826;28;20048;-75
2023/06/24 11:35:14;;;;;;;13.65;8.35;;;26.70;99.90;;;;;;5034870;28;20147;-78
2023/06/24 11:37:47;;;;;;;13.85;7.93;;;26.70;99.90;;;;;;5034794;28;20063;-76
2023/06/24 11:40:16;;;;;;;11.60;7.70;;;26.60;99.90;;;;;;5034866;28;20060;-75
2023/06/24 11:42:44;;;;;;;12.82;8.02;;;26.80;99.90;;;;;;5034785;28;20410;-78
2023/06/24 11:45:11;;;;;;;12.32;7.53;;;26.70;99.90;;;;;;5035047;28;20068;-75
2023/06/24 11:47:39;;;;;;;10.18;7.15;;;26.80;99.90;;;;;;5052549;28;20051;-75
2023/06/24 11:50:07;;;;;;;14.52;7.47;;;26.80;99.90;;;;;;5052646;28;20120;-77
2023/06/24 11:52:40;;;;;;;11.23;6.80;;;26.70;99.90;;;;;;5052487;28;20044;-76
2023/06/24 11:55:21;;;;;;;10.13;6.30;;;26.60;99.90;;;;;;5034627;28;20044;-77
2023/06/24 11:57:51;;;;;;;9.80;6.15;;;26.70;99.90;;;;;;5034480;28;20136;-76
2023/06/24 12:00:20;;;;;;;11.75;5.85;;;26.40;99.90;;;;;;5034918;28;20045;-78
2023/06/24 12:02:48;;;;;;;7.50;5.10;;;26.40;99.90;;;;;;5034482;28;20087;-77
2023/06/24 12:05:25;;;;;;;8.40;4.93;;;26.60;99.90;;;;;;5034370;28;20376;-78
2023/06/24 12:07:54;;;;;;;9.25;6.00;;;26.80;99.90;;;;;;5038425;28;20555;-77
2023/06/24 12:10:19;;;;;;;10.52;5.90;;;26.90;99.90;;;;;;5038047;28;20076;-77
2023/06/24 12:12:45;;;;;;;13.02;6.05;;;26.60;99.90;;;;;;5055793;28;20068;-75
2023/06/24 12:15:10;;;;;;;9.93;5.53;;;26.70;99.90;;;;;;5056114;28;20477;-74
2023/06/24 12:17:36;;;;;;;12.50;7.60;;;27.00;99.90;;;;;;5037864;28;20091;-75
2023/06/24 12:20:02;;;;;;;13.90;7.85;;;27.00;99.90;;;;;;5037796;28;20049;-75
2023/06/24 12:22:27;;;;;;;13.18;7.00;;;26.80;99.90;;;;;;5055648;28;20531;-74
2023/06/24 12:24:53;;;;;;;13.30;7.43;;;26.80;99.90;;;;;;5055927;28;20490;-75
2023/06/24 12:27:19;;;;;;;10.68;7.65;;;26.60;99.90;;;;;;5037707;28;20080;-75
2023/06/24 12:29:44;;;;;;;10.35;6.07;;;26.50;99.90;;;;;;5037919;28;20037;-93
2023/06/24 12:32:10;;;;;;;9.68;6.20;;;26.70;99.90;;;;;;5037965;28;20045;-78
2023/06/24 12:34:37;;;;;;;14.68;7.40;;;26.80;99.90;;;;;;5037492;28;20060;-74